createdAt,value
2022-11-13T00:01:36.577Z,1.50
2022-11-13T00:04:11.304Z,1.20
2022-11-13T00:06:38.562Z,1.40
2022-11-13T00:09:13.886Z,1.25
2022-11-13T00:11:44.044Z,1.30
2022-11-13T00:14:11.449Z,1.35
2022-11-13T00:16:38.571Z,1.63
2022-11-13T00:19:06.116Z,2.03
2022-11-13T00:21:33.635Z,1.38
2022-11-13T00:24:00.787Z,1.33
2022-11-13T00:26:32.427Z,1.42
2022-11-13T00:29:02.366Z,1.70
2022-11-13T00:31:55.397Z,1.73
2022-11-13T00:37:24.268Z,1.08
2022-11-13T00:40:12.989Z,1.60
2022-11-13T00:42:42.954Z,1.25
2022-11-13T00:45:17.626Z,1.35
2022-11-13T00:47:44.990Z,1.30
2022-11-13T00:50:16.468Z,1.48
2022-11-13T00:52:44.899Z,1.33
2022-11-13T00:55:13.585Z,1.10
2022-11-13T00:57:56.788Z,1.65
2022-11-13T01:00:35.038Z,1.58
2022-11-13T01:03:07.402Z,2.50
2022-11-13T01:05:39.581Z,1.42
2022-11-13T01:08:18.376Z,1.77
2022-11-13T01:10:53.549Z,1.17
2022-11-13T01:13:22.969Z,1.38
2022-11-13T01:15:52.690Z,1.73
2022-11-13T01:18:26.165Z,1.80
2022-11-13T01:21:02.031Z,1.70
2022-11-13T01:23:32.275Z,1.13
2022-11-13T01:26:22.878Z,1.17
2022-11-13T01:28:50.839Z,1.40
2022-11-13T01:31:24.445Z,1.33
2022-11-13T01:33:58.424Z,1.45
2022-11-13T01:36:29.400Z,1.40
2022-11-13T01:39:08.802Z,1.50
2022-11-13T01:41:36.078Z,1.20
2022-11-13T01:44:07.378Z,1.25
2022-11-13T01:46:39.196Z,0.77
2022-11-13T01:51:56.814Z,0.90
2022-11-13T01:54:31.955Z,1.35
2022-11-13T01:57:00.434Z,1.35
2022-11-13T01:59:31.831Z,1.00
2022-11-13T02:01:59.803Z,1.52
2022-11-13T02:04:32.999Z,1.30
2022-11-13T02:07:02.757Z,1.10
2022-11-13T02:09:38.608Z,1.45
2022-11-13T02:12:08.991Z,0.88
2022-11-13T02:14:38.813Z,1.60
2022-11-13T02:17:09.047Z,1.30
2022-11-13T02:19:44.584Z,1.13
2022-11-13T02:22:36.236Z,1.35
2022-11-13T02:25:07.074Z,1.40
2022-11-13T02:27:38.648Z,1.42
2022-11-13T02:30:27.142Z,1.00
2022-11-13T02:32:59.571Z,1.23
2022-11-13T02:35:28.897Z,0.77
2022-11-13T02:37:58.510Z,1.00
2022-11-13T02:40:28.545Z,0.65
2022-11-13T02:42:58.910Z,1.33
2022-11-13T02:45:26.008Z,1.08
2022-11-13T02:47:53.373Z,0.80
2022-11-13T02:50:21.057Z,1.08
2022-11-13T02:52:48.685Z,1.33
2022-11-13T02:55:23.821Z,0.50
2022-11-13T02:57:57.280Z,0.73
2022-11-13T03:00:28.971Z,0.88
2022-11-13T03:02:56.216Z,1.00
2022-11-13T03:05:26.360Z,1.20
2022-11-13T03:07:53.686Z,1.10
2022-11-13T03:10:23.284Z,0.80
2022-11-13T03:12:53.597Z,1.13
2022-11-13T03:15:21.035Z,0.80
2022-11-13T03:17:56.695Z,1.15
2022-11-13T03:20:29.812Z,0.93
2022-11-13T03:22:56.948Z,1.02
2022-11-13T03:25:24.355Z,0.90
2022-11-13T03:27:51.710Z,0.90
2022-11-13T03:30:19.366Z,1.10
2022-11-13T03:32:46.729Z,1.35
2022-11-13T03:35:16.917Z,1.00
2022-11-13T03:37:44.298Z,1.98
2022-11-13T03:40:12.389Z,1.02
2022-11-13T03:42:40.576Z,1.15
2022-11-13T03:45:08.307Z,1.20
2022-11-13T03:47:35.913Z,0.98
2022-11-13T03:50:06.166Z,1.70
2022-11-13T03:52:33.361Z,1.05
2022-11-13T03:55:02.965Z,0.82
2022-11-13T03:57:33.306Z,1.10
2022-11-13T04:00:00.725Z,1.52
2022-11-13T04:02:31.000Z,1.33
2022-11-13T04:04:59.740Z,1.27
2022-11-13T04:07:27.092Z,1.05
2022-11-13T04:09:54.340Z,0.75
2022-11-13T04:12:29.088Z,1.10
2022-11-13T04:15:03.108Z,1.27
2022-11-13T04:17:32.619Z,1.25
2022-11-13T04:20:00.063Z,0.90
2022-11-13T04:22:27.992Z,0.80
2022-11-13T04:24:55.059Z,1.10
2022-11-13T04:27:22.430Z,0.70
2022-11-13T04:29:49.779Z,1.10
2022-11-13T04:32:21.361Z,0.95
2022-11-13T04:34:49.144Z,0.93
2022-11-13T04:37:16.415Z,1.17
2022-11-13T04:39:44.114Z,1.33
2022-11-13T04:42:31.030Z,1.10
2022-11-13T04:44:58.134Z,1.00
2022-11-13T04:47:25.873Z,0.90
2022-11-13T04:49:53.272Z,1.30
2022-11-13T04:52:20.662Z,1.25
2022-11-13T04:54:47.863Z,1.27
2022-11-13T04:57:15.240Z,1.10
2022-11-13T04:59:42.328Z,1.25
2022-11-13T05:02:09.476Z,1.40
2022-11-13T05:04:43.915Z,1.00
2022-11-13T05:07:14.944Z,1.08
2022-11-13T05:09:46.380Z,1.60
2022-11-13T05:12:14.602Z,1.10
2022-11-13T05:14:41.991Z,1.08
2022-11-13T05:17:11.026Z,1.63
2022-11-13T05:19:39.078Z,1.20
2022-11-13T05:22:06.709Z,1.17
2022-11-13T05:24:34.126Z,1.20
2022-11-13T05:27:01.622Z,1.55
2022-11-13T05:29:28.738Z,1.20
2022-11-13T05:31:58.648Z,1.50
2022-11-13T05:34:29.195Z,1.20
2022-11-13T05:36:59.744Z,1.23
2022-11-13T05:39:26.957Z,1.00
2022-11-13T05:41:57.173Z,0.93
2022-11-13T05:44:24.186Z,1.48
2022-11-13T05:46:54.474Z,0.80
2022-11-13T05:49:21.898Z,1.17
2022-11-13T05:51:51.302Z,1.20
2022-11-13T05:54:18.837Z,0.93
2022-11-13T05:56:46.258Z,1.02
2022-11-13T05:59:14.027Z,1.00
2022-11-13T06:01:42.003Z,1.55
2022-11-13T06:04:11.564Z,1.02
2022-11-13T06:06:42.445Z,1.42
2022-11-13T06:09:12.907Z,1.27
2022-11-13T06:11:40.843Z,1.52
2022-11-13T06:14:10.300Z,1.10
2022-11-13T06:16:46.123Z,1.23
2022-11-13T06:19:13.558Z,1.50
2022-11-13T06:21:43.559Z,1.20
2022-11-13T06:24:22.377Z,1.30
2022-11-13T06:26:54.137Z,1.50
2022-11-13T06:29:23.444Z,1.40
2022-11-13T06:31:53.611Z,1.38
2022-11-13T06:34:21.009Z,1.90
2022-11-13T06:36:51.190Z,2.45
2022-11-13T06:39:19.245Z,2.15
2022-11-13T06:41:46.327Z,1.95
2022-11-13T06:44:13.566Z,1.98
2022-11-13T06:46:40.833Z,1.83
2022-11-13T06:49:08.725Z,1.60
2022-11-13T06:51:39.882Z,1.90
2022-11-13T06:54:10.166Z,1.63
2022-11-13T06:56:43.730Z,1.50
2022-11-13T06:59:11.463Z,1.23
2022-11-13T07:01:41.154Z,1.70
2022-11-13T07:04:23.065Z,1.77
2022-11-13T07:06:52.714Z,1.73
2022-11-13T07:09:20.393Z,1.83
2022-11-13T07:11:47.764Z,1.50
2022-11-13T07:14:15.028Z,2.00
2022-11-13T07:17:08.181Z,1.83
2022-11-13T07:19:39.762Z,2.35
2022-11-13T07:22:07.244Z,2.00
2022-11-13T07:24:35.176Z,1.15
2022-11-13T07:27:08.434Z,1.83
2022-11-13T07:29:36.806Z,1.38
2022-11-13T07:32:06.946Z,1.25
2022-11-13T07:34:34.216Z,1.63
2022-11-13T07:37:03.496Z,1.40
2022-11-13T07:39:38.685Z,1.20
2022-11-13T07:42:12.699Z,1.55
2022-11-13T07:44:53.923Z,1.38
2022-11-13T07:47:23.678Z,1.00
2022-11-13T07:49:51.349Z,1.27
2022-11-13T07:52:18.988Z,1.50
2022-11-13T07:54:52.178Z,1.05
2022-11-13T07:57:21.228Z,1.40
2022-11-13T07:59:48.629Z,1.10
2022-11-13T08:02:25.235Z,1.27
2022-11-13T08:07:24.493Z,1.13
2022-11-13T08:09:52.264Z,1.65
2022-11-13T08:12:22.380Z,1.30
2022-11-13T08:14:49.665Z,1.35
2022-11-13T08:17:17.127Z,1.38
2022-11-13T08:19:45.269Z,2.00
2022-11-13T08:22:25.573Z,2.13
2022-11-13T08:24:59.997Z,1.45
2022-11-13T08:27:46.559Z,2.03
2022-11-13T08:30:30.514Z,1.55
2022-11-13T08:35:34.486Z,1.63
2022-11-13T08:38:07.014Z,1.10
2022-11-13T08:40:36.900Z,1.60
2022-11-13T08:43:06.487Z,1.35
2022-11-13T08:45:37.068Z,1.33
2022-11-13T08:48:05.420Z,1.05
2022-11-13T08:50:33.880Z,0.90
2022-11-13T08:53:12.896Z,0.75
2022-11-13T08:55:40.390Z,0.88
2022-11-13T08:58:07.547Z,0.80
2022-11-13T09:00:38.496Z,0.60
2022-11-13T09:03:05.820Z,1.05
2022-11-13T09:05:33.118Z,0.85
2022-11-13T09:08:02.203Z,0.80
2022-11-13T09:10:29.909Z,1.17
2022-11-13T09:13:06.782Z,0.70
2022-11-13T09:15:35.625Z,0.52
2022-11-13T09:18:03.867Z,0.80
2022-11-13T09:20:32.683Z,0.68
2022-11-13T09:23:10.568Z,0.60
2022-11-13T09:25:45.075Z,0.60
2022-11-13T09:28:24.522Z,0.75
2022-11-13T09:31:16.338Z,0.88
2022-11-13T09:33:55.803Z,0.70
2022-11-13T09:36:28.384Z,0.68
2022-11-13T09:39:00.337Z,0.70
2022-11-13T09:41:37.786Z,0.70
2022-11-13T09:44:13.719Z,0.70
2022-11-13T09:46:55.169Z,0.70
2022-11-13T09:49:40.250Z,0.65
2022-11-13T09:52:23.482Z,0.68
2022-11-13T09:54:51.608Z,0.65
2022-11-13T09:57:47.934Z,0.80
2022-11-13T10:00:22.078Z,0.63
2022-11-13T10:03:59.174Z,0.50
2022-11-13T10:06:39.529Z,0.60
2022-11-13T10:09:29.997Z,0.52
2022-11-13T10:12:10.074Z,0.80
2022-11-13T10:14:51.396Z,0.90
2022-11-13T10:17:36.948Z,0.60
2022-11-13T10:20:17.950Z,0.88
2022-11-13T10:22:55.860Z,0.80
2022-11-13T10:25:36.029Z,0.73
2022-11-13T10:28:49.432Z,0.98
2022-11-13T10:31:15.444Z,0.70
2022-11-13T10:33:58.377Z,1.00
2022-11-13T10:36:43.166Z,0.82
2022-11-13T10:39:15.617Z,0.75
2022-11-13T10:41:53.787Z,1.25
2022-11-13T10:44:35.834Z,0.90
2022-11-13T10:47:36.082Z,0.75
2022-11-13T10:50:31.046Z,1.30
2022-11-13T10:53:02.562Z,1.40
2022-11-13T10:55:44.305Z,1.10
2022-11-13T10:58:21.168Z,1.25
2022-11-13T11:00:52.850Z,1.00
2022-11-13T11:03:48.421Z,0.60
2022-11-13T11:06:15.560Z,0.95
2022-11-13T11:08:43.424Z,0.70
2022-11-13T11:11:46.683Z,0.98
2022-11-13T11:14:34.155Z,1.38
2022-11-13T11:17:04.421Z,1.00
2022-11-13T11:19:37.773Z,1.80
2022-11-13T11:22:27.868Z,1.40
2022-11-13T11:27:48.282Z,0.75
2022-11-13T11:30:23.561Z,1.42
2022-11-13T11:33:04.955Z,1.27
2022-11-13T11:35:53.558Z,1.00
2022-11-13T11:38:32.868Z,0.55
2022-11-13T11:41:16.616Z,1.08
2022-11-13T11:44:02.999Z,0.85
2022-11-13T11:46:45.571Z,1.15
2022-11-13T11:49:15.266Z,0.88
2022-11-13T11:52:16.602Z,0.90
2022-11-13T11:54:59.179Z,1.00
2022-11-13T11:57:59.295Z,1.30
2022-11-13T12:00:36.399Z,0.68
2022-11-13T12:03:43.002Z,1.02
2022-11-13T12:06:38.698Z,1.40
2022-11-13T12:09:31.356Z,1.30
2022-11-13T12:11:59.612Z,1.00
2022-11-13T12:15:02.508Z,1.00
2022-11-13T12:18:02.553Z,0.80
2022-11-13T12:20:47.323Z,0.98
2022-11-13T12:23:40.135Z,1.08
2022-11-13T12:26:51.856Z,1.00
2022-11-13T12:29:34.259Z,1.10
2022-11-13T12:32:31.244Z,0.93
2022-11-13T12:35:10.182Z,0.93
2022-11-13T12:37:47.470Z,1.10
2022-11-13T12:40:44.029Z,0.75
2022-11-13T12:43:33.997Z,0.77
2022-11-13T12:46:09.807Z,0.80
2022-11-13T12:48:41.731Z,0.75
2022-11-13T12:51:11.747Z,1.20
2022-11-13T12:53:50.880Z,1.27
2022-11-13T12:56:33.254Z,0.93
2022-11-13T12:59:31.510Z,1.58
2022-11-13T13:02:08.849Z,1.50
2022-11-13T13:05:07.613Z,1.20
2022-11-13T13:08:07.360Z,1.00
2022-11-13T13:11:11.916Z,0.82
2022-11-13T13:14:36.987Z,1.25
2022-11-13T13:17:30.343Z,1.00
2022-11-13T13:20:03.023Z,1.00
2022-11-13T13:22:35.984Z,0.77
2022-11-13T13:25:37.613Z,1.27
2022-11-13T13:28:27.199Z,1.38
2022-11-13T13:31:15.059Z,0.98
2022-11-13T13:34:03.685Z,1.23
2022-11-13T13:36:50.644Z,1.00
2022-11-13T13:39:54.948Z,1.48
2022-11-13T13:42:28.178Z,1.20
2022-11-13T13:45:31.564Z,1.10
2022-11-13T13:48:08.830Z,1.48
2022-11-13T13:50:50.665Z,1.65
2022-11-13T13:53:25.147Z,2.05
2022-11-13T13:55:55.585Z,2.53
2022-11-13T13:58:35.664Z,2.05
2022-11-13T14:01:18.922Z,1.55
2022-11-13T14:03:50.877Z,1.13
2022-11-13T14:06:20.816Z,1.35
2022-11-13T14:08:48.908Z,1.45
2022-11-13T14:11:33.953Z,1.65
2022-11-13T14:14:18.678Z,1.70
2022-11-13T14:16:54.455Z,1.52
2022-11-13T14:19:33.214Z,1.75
2022-11-13T14:22:05.579Z,1.83
2022-11-13T14:24:53.853Z,2.22
2022-11-13T14:27:35.717Z,2.30
2022-11-13T14:30:05.787Z,2.65
2022-11-13T14:32:42.989Z,2.83
2022-11-13T14:35:26.791Z,3.15
2022-11-13T14:38:11.480Z,3.67
2022-11-13T14:40:46.660Z,3.47
2022-11-13T14:43:27.631Z,5.75
2022-11-13T14:46:01.223Z,6.47
2022-11-13T14:48:35.390Z,6.07
2022-11-13T14:51:26.570Z,6.30
2022-11-13T14:54:07.832Z,6.57
2022-11-13T14:56:48.659Z,6.05
2022-11-13T14:59:25.165Z,5.30
2022-11-13T15:02:08.592Z,6.68
2022-11-13T15:04:40.579Z,6.45
2022-11-13T15:07:42.025Z,7.07
2022-11-13T15:10:16.432Z,6.57
2022-11-13T15:12:51.273Z,6.53
2022-11-13T15:15:31.287Z,7.88
2022-11-13T15:17:59.501Z,7.50
2022-11-13T15:20:29.345Z,6.80
2022-11-13T15:23:00.434Z,6.38
2022-11-13T15:25:28.243Z,6.38
2022-11-13T15:27:56.829Z,6.07
2022-11-13T15:30:26.432Z,5.25
2022-11-13T15:32:54.943Z,5.80
2022-11-13T15:35:23.209Z,5.75
2022-11-13T15:37:53.371Z,5.72
2022-11-13T15:40:20.856Z,5.22
2022-11-13T15:42:51.127Z,5.35
2022-11-13T15:48:10.450Z,4.72
2022-11-13T15:50:39.100Z,5.05
2022-11-13T15:53:14.610Z,5.15
2022-11-13T15:55:43.818Z,5.43
2022-11-13T15:58:17.099Z,4.30
2022-11-13T16:00:46.298Z,4.28
2022-11-13T16:03:14.816Z,4.00
2022-11-13T16:05:50.032Z,4.32
2022-11-13T16:08:17.607Z,4.30
2022-11-13T16:10:44.823Z,5.80
2022-11-13T16:13:16.148Z,4.32
2022-11-13T16:15:44.672Z,4.45
2022-11-13T16:18:28.653Z,4.40
2022-11-13T16:20:58.174Z,5.63
2022-11-13T16:23:27.249Z,5.80
2022-11-13T16:29:12.815Z,6.60
2022-11-13T16:31:38.534Z,8.98
2022-11-13T16:34:13.391Z,7.63
2022-11-13T16:36:57.874Z,8.55
2022-11-13T16:39:34.241Z,7.90
2022-11-13T16:42:06.818Z,9.10
2022-11-13T16:44:37.116Z,15.85
2022-11-13T16:47:06.220Z,11.65
2022-11-13T16:49:35.158Z,11.02
2022-11-13T16:52:02.720Z,11.75
2022-11-13T16:54:30.327Z,11.80
2022-11-13T16:59:42.256Z,9.30
2022-11-13T17:02:21.068Z,11.10
2022-11-13T17:04:48.876Z,11.75
2022-11-13T17:07:16.679Z,10.95
2022-11-13T17:09:58.888Z,8.52
2022-11-13T17:12:38.179Z,9.35
2022-11-13T17:18:09.639Z,11.25
2022-11-13T17:20:37.620Z,12.43
2022-11-13T17:23:05.029Z,12.40
2022-11-13T17:25:34.604Z,10.75
2022-11-13T17:28:04.148Z,10.85
2022-11-13T17:30:31.699Z,10.05
2022-11-13T17:33:00.716Z,14.73
2022-11-13T17:35:35.903Z,13.05
2022-11-13T17:38:03.096Z,13.43
2022-11-13T17:40:32.046Z,13.18
2022-11-13T17:43:22.441Z,24.98
2022-11-13T17:45:50.994Z,13.40
2022-11-13T17:48:22.883Z,14.32
2022-11-13T17:50:58.296Z,11.73
2022-11-13T17:53:41.433Z,9.40
2022-11-13T17:56:12.983Z,9.25
2022-11-13T17:58:42.157Z,10.38
2022-11-13T18:01:46.003Z,8.18
2022-11-13T18:04:40.117Z,8.10
2022-11-13T18:07:19.148Z,13.60
2022-11-13T18:09:55.550Z,18.95
2022-11-13T18:12:25.362Z,15.85
2022-11-13T18:15:00.427Z,14.68
2022-11-13T18:17:39.762Z,13.05
2022-11-13T18:20:07.491Z,17.73
2022-11-13T18:22:39.215Z,14.85
2022-11-13T18:25:08.280Z,12.82
2022-11-13T18:27:36.583Z,25.60
2022-11-13T18:30:06.184Z,25.45
2022-11-13T18:32:49.662Z,43.40
2022-11-13T18:35:22.383Z,22.95
2022-11-13T18:37:52.439Z,17.23
2022-11-13T18:40:19.924Z,19.02
2022-11-13T18:42:57.938Z,17.20
2022-11-13T18:45:32.430Z,25.13
2022-11-13T18:48:02.600Z,18.42
2022-11-13T18:50:29.683Z,16.58
2022-11-13T18:52:58.317Z,16.67
2022-11-13T18:55:25.820Z,13.70
2022-11-13T18:57:55.117Z,13.32
2022-11-13T19:00:22.904Z,12.32
2022-11-13T19:02:52.635Z,11.48
2022-11-13T19:05:20.085Z,12.52
2022-11-13T19:07:48.640Z,10.32
2022-11-13T19:10:26.533Z,14.27
2022-11-13T19:12:53.864Z,13.25
2022-11-13T19:15:21.591Z,13.40
2022-11-13T19:17:52.710Z,20.45
2022-11-13T19:20:21.694Z,22.40
2022-11-13T19:22:55.391Z,16.17
2022-11-13T19:25:23.702Z,14.32
2022-11-13T19:27:50.910Z,18.88
2022-11-13T19:30:23.028Z,16.17
2022-11-13T19:32:54.274Z,17.60
2022-11-13T19:35:24.219Z,15.52
2022-11-13T19:37:58.057Z,18.67
2022-11-13T19:40:32.279Z,21.33
2022-11-13T19:43:04.577Z,24.42
2022-11-13T19:45:33.430Z,21.08
2022-11-13T19:48:06.996Z,22.92
2022-11-13T19:50:35.865Z,23.13
2022-11-13T19:53:03.586Z,26.75
2022-11-13T19:55:31.045Z,47.60
2022-11-13T19:58:04.853Z,46.25
2022-11-13T20:00:32.298Z,28.70
2022-11-13T20:03:02.652Z,32.47
2022-11-13T20:05:34.510Z,25.67
2022-11-13T20:08:01.796Z,33.90
2022-11-13T20:10:29.036Z,28.92
2022-11-13T20:12:56.491Z,36.28
2022-11-13T20:15:26.669Z,25.52
2022-11-13T20:17:53.856Z,49.13
2022-11-13T20:20:21.027Z,34.33
2022-11-13T20:22:48.542Z,31.05
2022-11-13T20:25:16.276Z,29.38
2022-11-13T20:27:47.369Z,34.00
2022-11-13T20:30:14.953Z,32.40
2022-11-13T20:32:46.040Z,43.75
2022-11-13T20:35:13.908Z,32.17
2022-11-13T20:37:45.775Z,29.08
2022-11-13T20:42:40.968Z,36.28
2022-11-13T20:45:08.784Z,34.13
2022-11-13T20:47:36.129Z,37.08
2022-11-13T20:50:03.253Z,45.33
2022-11-13T20:52:31.448Z,42.10
2022-11-13T20:54:58.642Z,38.10
2022-11-13T20:57:25.976Z,32.55
2022-11-13T20:59:53.167Z,31.45
2022-11-13T21:02:20.592Z,25.98
2022-11-13T21:04:53.667Z,23.88
2022-11-13T21:07:28.763Z,28.27
2022-11-13T21:09:56.331Z,30.80
2022-11-13T21:12:26.459Z,27.35
2022-11-13T21:14:57.108Z,28.40
2022-11-13T21:17:33.116Z,30.30
2022-11-13T21:20:05.906Z,30.52
2022-11-13T21:22:33.840Z,29.40
2022-11-13T21:25:04.421Z,30.02
2022-11-13T21:27:31.708Z,22.85
2022-11-13T21:30:02.121Z,32.25
2022-11-13T21:32:34.117Z,22.00
2022-11-13T21:35:01.686Z,20.20
2022-11-13T21:37:33.893Z,36.65
2022-11-13T21:40:01.048Z,44.03
2022-11-13T21:42:30.833Z,27.95
2022-11-13T21:47:27.749Z,38.60
2022-11-13T21:49:54.725Z,29.48
2022-11-13T21:52:24.922Z,28.70
2022-11-13T21:54:55.021Z,27.98
2022-11-13T21:57:27.444Z,24.92
2022-11-13T21:59:54.727Z,24.52
2022-11-13T22:02:27.017Z,23.00
2022-11-13T22:04:54.724Z,23.33
2022-11-13T22:07:22.003Z,24.33
2022-11-13T22:09:49.369Z,24.05
2022-11-13T22:12:16.969Z,22.52
2022-11-13T22:14:54.986Z,18.42
2022-11-13T22:17:22.842Z,17.80
2022-11-13T22:19:52.097Z,18.20
2022-11-13T22:22:19.327Z,17.98
2022-11-13T22:24:50.826Z,14.15
2022-11-13T22:27:21.915Z,17.77
2022-11-13T22:29:55.104Z,13.77
2022-11-13T22:32:27.569Z,17.42
2022-11-13T22:34:57.749Z,15.18
2022-11-13T22:37:25.669Z,12.45
2022-11-13T22:39:58.250Z,15.32
2022-11-13T22:42:25.578Z,13.60
2022-11-13T22:44:56.805Z,17.58
2022-11-13T22:47:23.920Z,16.08
2022-11-13T22:49:54.320Z,14.93
2022-11-13T22:52:24.477Z,21.77
2022-11-13T22:54:52.343Z,16.27
2022-11-13T22:57:20.827Z,13.50
2022-11-13T22:59:51.761Z,12.40
2022-11-13T23:02:19.039Z,16.60
2022-11-13T23:04:46.570Z,13.32
2022-11-13T23:07:14.327Z,11.98
2022-11-13T23:09:50.653Z,11.82
2022-11-13T23:12:18.000Z,13.60
2022-11-13T23:14:45.069Z,9.75
2022-11-13T23:17:12.581Z,15.43
2022-11-13T23:19:46.421Z,9.25
2022-11-13T23:22:14.445Z,20.38
2022-11-13T23:24:45.137Z,9.20
2022-11-13T23:27:13.421Z,20.65
2022-11-13T23:29:41.590Z,30.67
2022-11-13T23:34:58.532Z,17.08
2022-11-13T23:37:27.193Z,14.02
2022-11-13T23:39:58.413Z,15.60
2022-11-13T23:42:45.739Z,12.38
2022-11-13T23:45:19.054Z,20.35
2022-11-13T23:47:46.442Z,13.73
2022-11-13T23:50:14.591Z,9.95
2022-11-13T23:52:42.505Z,14.95
2022-11-13T23:55:09.954Z,15.45
2022-11-13T23:57:40.184Z,19.75
